Hollandale, MN (56045)

7:01 PM CST on December 22, 2014 (GMT -0600)
South Geneva Lake | Change Station
CLOSE
Current Station
Personal Weather Station
Location: Hollandale, MN
Elevation: 1207 ft
Nearby Weather Stations

Elev 1207 ft 43.77 °N, 93.27 °W | Updated 53 seconds ago

Rain
Rain
34.4 °F
Feels Like 27 °F
N
9.3
Wind Variable Wind from East
Gusts 14.0 mph

Today
High -- | Low -- °F
--% Chance of Precip.
Yesterday
High -- | Low -- °F
Precip. -- in
7:43 AM 4:39 PM
New Moon, 1% visible
Pressure 29.53 in
Visibility 2.5 miles
Clouds Overcast 600 ft
Windchill 27 °F
Dew Point 24 °F
Humidity 64%
Rainfall 0.10 in
Snow Depth Not available.
UV 0 out of 12
Pollen .10 out of 12
Air Quality Not available.
Flu Activity Not available.
METAR KAEL 230051Z AUTO 10011KT 2 1/2SM -SN OVC006 01/01 A2953 RMK AO2

More Conditions Fewer Conditions

Pressure 29.53 in
Visibility 2.5 miles
Clouds Overcast 600 ft
Windchill 27 °F
Dew Point 24 °F
Humidity 64%
Rainfall 0.10 in
Snow Depth Not available.
UV 0 out of 12
Pollen .10 out of 12
Air Quality Not available.
Flu Activity Not available.
METAR KAEL 230051Z AUTO 10011KT 2 1/2SM -SN OVC006 01/01 A2953 RMK AO2

More Conditions Fewer Conditions

10-Day Weather Forecast

Almanac

Astronomy

Dec. 22, 2014 Rise Set
Actual Time
Civil Twilight
Nautical Twilight
Astronomical Twilight
Moon
Length of Visible Light
Length of Day
Tomorrow will be .
, % of the Moon is Illuminated

Today's Extremes

State Highs State Lows

Community

WunderPhotos

Upload Photos

1,779,742 photos uploaded!

WunderBlogs® & News

Nearby

Air Quality

  Air Quality AQ Index Pollutant
Not available.

Snow Depth

Station Depth Elevation

Earthquake Activity

City Distance Mag. Time & Date
Minimum magnitude displayed is 2.5.

Coastal Water Temperatures

Place Temperature

Nearby Weather Stations